Time;durP1;ratioP1;P1;durP2;ratioP2;P2;SDS_P1;SDS_P2;PMS_P1;PMS_P2;Temp;Humidity;BMP_temperature;BMP_pressure;BME280_temperature;BME280_humidity;BME280_pressure;Samples;Min_cycle;Max_cycle;Signal;HPM_P1;HPM_P2
2021/06/25 00:00:48;;;;;;;32.83;7.72;;;717.20;1868.80;;;;;;5054603;28;20486;-58
2021/06/25 00:03:13;;;;;;;32.00;7.85;;;717.10;1868.80;;;;;;5054336;28;20067;-58
2021/06/25 00:05:39;;;;;;;32.50;7.60;;;717.10;1843.20;;;;;;5054340;28;20107;-58
2021/06/25 00:08:05;;;;;;;36.00;8.13;;;717.10;1843.20;;;;;;5054593;28;20025;-58
2021/06/25 00:10:31;;;;;;;38.78;8.32;;;717.00;1868.80;;;;;;5054505;28;20389;-59
2021/06/25 00:12:57;;;;;;;33.33;7.82;;;717.00;1843.20;;;;;;5054319;28;20021;-59
2021/06/25 00:15:23;;;;;;;31.58;7.38;;;717.00;1843.20;;;;;;5054328;28;20143;-59
2021/06/25 00:17:49;;;;;;;29.77;7.15;;;717.10;1843.20;;;;;;5054272;28;20390;-58
2021/06/25 00:20:15;;;;;;;42.90;7.70;;;717.10;1843.20;;;;;;5054112;28;20025;-58
2021/06/25 00:22:44;;;;;;;35.47;7.95;;;717.10;1817.60;;;;;;5036105;28;20500;-59
2021/06/25 00:25:11;;;;;;;39.15;7.50;;;717.10;1817.60;;;;;;5054249;28;20057;-58
2021/06/25 00:27:36;;;;;;;36.40;7.50;;;717.10;1817.60;;;;;;5053323;28;20096;-59
2021/06/25 00:30:04;;;;;;;34.33;7.10;;;717.10;1817.60;;;;;;5053529;28;20052;-59
2021/06/25 00:32:29;;;;;;;29.10;7.88;;;717.10;1817.60;;;;;;5036192;28;20423;-59
2021/06/25 00:34:55;;;;;;;37.58;8.18;;;717.10;1817.60;;;;;;5053208;28;20044;-60
2021/06/25 00:37:21;;;;;;;31.48;7.55;;;717.10;1817.60;;;;;;5054134;28;20366;-59
2021/06/25 00:39:46;;;;;;;33.22;7.00;;;717.10;1792.00;;;;;;5054084;28;20033;-58
2021/06/25 00:42:12;;;;;;;38.10;8.25;;;717.00;1792.00;;;;;;5054010;28;20037;-58
2021/06/25 00:44:39;;;;;;;38.88;7.07;;;717.10;1792.00;;;;;;5053823;28;20021;-58
2021/06/25 00:47:07;;;;;;;33.53;7.32;;;717.00;1792.00;;;;;;5053521;28;20375;-58
2021/06/25 00:49:34;;;;;;;33.85;6.88;;;717.00;1792.00;;;;;;5053771;28;20049;-58
2021/06/25 00:52:01;;;;;;;35.70;7.30;;;717.00;1792.00;;;;;;5053704;28;20083;-58
2021/06/25 00:54:27;;;;;;;42.35;6.97;;;717.00;1766.40;;;;;;5053952;28;20035;-58
2021/06/25 00:56:53;;;;;;;41.20;7.22;;;717.00;1792.00;;;;;;5053572;28;20363;-58
2021/06/25 00:59:18;;;;;;;34.97;7.32;;;717.00;1766.40;;;;;;5053410;28;20037;-57
2021/06/25 01:01:44;;;;;;;26.63;6.40;;;717.00;1766.40;;;;;;5053641;28;20028;-57
2021/06/25 01:04:13;;;;;;;43.75;7.47;;;717.00;1766.40;;;;;;5053634;28;20033;-58
2021/06/25 01:06:39;;;;;;;33.25;6.82;;;717.00;1766.40;;;;;;5053697;28;20033;-58
2021/06/25 01:09:07;;;;;;;35.95;6.82;;;717.00;1766.40;;;;;;5053821;28;20025;-58
2021/06/25 01:11:34;;;;;;;29.55;7.53;;;717.00;1766.40;;;;;;5055902;28;20028;-57
2021/06/25 01:14:00;;;;;;;33.47;6.90;;;716.80;1766.40;;;;;;5062658;28;20083;-58
2021/06/25 01:16:27;;;;;;;31.55;7.22;;;716.90;1766.40;;;;;;5062887;28;20021;-57
2021/06/25 01:18:52;;;;;;;33.35;7.00;;;716.90;1766.40;;;;;;5061356;28;20041;-58
2021/06/25 01:21:18;;;;;;;37.55;6.88;;;716.80;1766.40;;;;;;5061198;28;20048;-58
2021/06/25 01:23:44;;;;;;;28.75;6.38;;;716.80;1766.40;;;;;;5062199;28;20382;-58
2021/06/25 01:26:11;;;;;;;34.63;6.82;;;716.80;1766.40;;;;;;5044053;28;20036;-57
2021/06/25 01:28:37;;;;;;;37.30;6.75;;;692.10;1766.40;;;;;;5061015;28;20033;-58
2021/06/25 01:31:04;;;;;;;34.13;6.82;;;692.10;1766.40;;;;;;5059750;28;20470;-58
2021/06/25 01:33:33;;;;;;;34.10;7.13;;;692.10;1766.40;;;;;;5061866;28;20037;-58
2021/06/25 01:35:59;;;;;;;32.88;7.10;;;692.00;1766.40;;;;;;5061481;28;20017;-59
2021/06/25 01:38:26;;;;;;;34.70;6.75;;;692.00;1766.40;;;;;;5061948;28;20048;-58
2021/06/25 01:40:52;;;;;;;30.98;6.35;;;691.90;1766.40;;;;;;5066796;28;20044;-58
2021/06/25 01:43:18;;;;;;;33.28;7.00;;;691.90;1766.40;;;;;;5065242;28;20106;-58
2021/06/25 01:45:44;;;;;;;27.10;6.40;;;691.90;1766.40;;;;;;5065626;28;20017;-59
2021/06/25 01:48:11;;;;;;;30.60;6.45;;;691.90;1766.40;;;;;;5066182;28;20107;-59
2021/06/25 01:50:39;;;;;;;31.63;6.13;;;691.90;1766.40;;;;;;5065304;28;20462;-59
2021/06/25 01:53:11;;;;;;;34.95;6.32;;;691.90;1766.40;;;;;;5065078;28;20047;-58
2021/06/25 01:55:41;;;;;;;34.50;6.45;;;691.80;1740.80;;;;;;5063185;28;20024;-58
2021/06/25 01:58:10;;;;;;;35.67;7.05;;;691.80;1766.40;;;;;;5039552;28;20068;-59
2021/06/25 02:00:37;;;;;;;33.97;6.82;;;691.80;1766.40;;;;;;5070453;28;20021;-59
2021/06/25 02:03:03;;;;;;;34.67;6.13;;;691.80;1766.40;;;;;;5076924;28;20036;-59
2021/06/25 02:05:29;;;;;;;34.78;6.53;;;691.80;1766.40;;;;;;5076694;28;20028;-60
2021/06/25 02:07:54;;;;;;;35.05;6.88;;;691.70;1766.40;;;;;;5071353;28;20111;-59
2021/06/25 02:10:20;;;;;;;39.20;6.93;;;691.70;1766.40;;;;;;5066672;28;20032;-59
2021/06/25 02:12:46;;;;;;;36.28;6.60;;;691.70;1766.40;;;;;;5064917;28;20074;-59
2021/06/25 02:15:12;;;;;;;30.10;6.78;;;691.70;1766.40;;;;;;5066541;28;20016;-59
2021/06/25 02:17:38;;;;;;;34.40;6.57;;;691.60;1766.40;;;;;;5066115;28;20461;-58
2021/06/25 02:20:06;;;;;;;36.58;6.72;;;691.60;1766.40;;;;;;5066713;28;20017;-59
2021/06/25 02:22:32;;;;;;;28.75;6.32;;;691.60;1766.40;;;;;;5070614;28;20497;-59
2021/06/25 02:24:57;;;;;;;29.65;6.72;;;691.50;1766.40;;;;;;5073268;28;20033;-59
2021/06/25 02:27:23;;;;;;;29.05;6.72;;;691.50;1766.40;;;;;;5068496;28;20021;-58
2021/06/25 02:29:49;;;;;;;31.85;6.00;;;691.40;1792.00;;;;;;5065268;28;20474;-59
2021/06/25 02:32:15;;;;;;;30.65;6.57;;;691.40;1766.40;;;;;;5064965;28;20066;-59
2021/06/25 02:34:40;;;;;;;39.45;6.35;;;691.40;1792.00;;;;;;5063940;28;20107;-59
2021/06/25 02:37:06;;;;;;;33.35;6.60;;;691.30;1792.00;;;;;;5066023;28;20028;-59
2021/06/25 02:39:32;;;;;;;32.10;6.90;;;691.30;1792.00;;;;;;5046688;28;20091;-58
2021/06/25 02:41:58;;;;;;;32.58;6.30;;;691.30;1792.00;;;;;;5064281;28;20183;-59
2021/06/25 02:44:23;;;;;;;37.28;7.03;;;691.20;1792.00;;;;;;5065673;28;20028;-59
2021/06/25 02:46:49;;;;;;;31.92;5.97;;;691.20;1792.00;;;;;;5064030;28;20493;-59
2021/06/25 02:49:16;;;;;;;32.60;6.57;;;691.20;1792.00;;;;;;5064764;28;20027;-58
2021/06/25 02:51:43;;;;;;;36.13;6.97;;;691.20;1766.40;;;;;;5064808;28;20025;-58
2021/06/25 02:54:09;;;;;;;30.25;6.18;;;666.50;1766.40;;;;;;5064222;28;20096;-59
2021/06/25 02:56:35;;;;;;;32.75;6.97;;;666.50;1766.40;;;;;;5064519;28;20044;-58
2021/06/25 02:59:00;;;;;;;24.83;5.45;;;666.50;1766.40;;;;;;5065150;28;20741;-59
2021/06/25 03:01:26;;;;;;;30.90;6.65;;;666.40;1766.40;;;;;;5063205;28;20021;-59
2021/06/25 03:03:52;;;;;;;32.88;6.07;;;666.50;1766.40;;;;;;5064535;28;20056;-58
2021/06/25 03:06:17;;;;;;;34.72;6.13;;;666.40;1766.40;;;;;;5064843;28;20455;-58
2021/06/25 03:08:43;;;;;;;32.55;6.68;;;666.50;1766.40;;;;;;5063071;28;20021;-58
2021/06/25 03:11:09;;;;;;;31.75;6.03;;;666.40;1766.40;;;;;;5065154;28;20021;-58
2021/06/25 03:13:35;;;;;;;33.28;6.32;;;666.40;1766.40;;;;;;5064491;28;20048;-58
2021/06/25 03:16:01;;;;;;;35.72;6.25;;;666.50;1766.40;;;;;;5065845;28;20057;-57
2021/06/25 03:18:27;;;;;;;31.85;6.13;;;666.50;1766.40;;;;;;5063089;28;20071;-58
2021/06/25 03:20:52;;;;;;;32.45;6.35;;;666.50;1766.40;;;;;;5055312;28;20382;-58
2021/06/25 03:23:18;;;;;;;26.15;6.00;;;666.50;1766.40;;;;;;5055282;28;20541;-58
2021/06/25 03:25:44;;;;;;;36.83;6.45;;;666.50;1740.80;;;;;;5055175;28;20120;-59
2021/06/25 03:28:10;;;;;;;30.83;6.18;;;666.50;1740.80;;;;;;5058110;28;20108;-58
2021/06/25 03:30:38;;;;;;;30.15;5.72;;;691.20;1740.80;;;;;;5065783;28;20028;-58
2021/06/25 03:33:04;;;;;;;30.88;6.00;;;691.20;1740.80;;;;;;5063490;28;20029;-59
2021/06/25 03:35:30;;;;;;;34.28;6.57;;;691.20;1740.80;;;;;;5063416;28;20024;-58
2021/06/25 03:37:56;;;;;;;33.58;6.10;;;691.20;1740.80;;;;;;5050907;28;20036;-59
2021/06/25 03:40:23;;;;;;;36.35;5.95;;;691.20;1740.80;;;;;;5075240;28;20024;-59
2021/06/25 03:42:49;;;;;;;28.33;6.15;;;691.20;1740.80;;;;;;5074841;28;20044;-58
2021/06/25 03:45:16;;;;;;;30.45;6.13;;;691.20;1740.80;;;;;;5074923;28;20096;-58
2021/06/25 03:47:42;;;;;;;31.45;6.28;;;691.20;1740.80;;;;;;5074973;28;20024;-58
2021/06/25 03:50:11;;;;;;;31.88;5.80;;;691.20;1740.80;;;;;;5074669;28;20029;-58
2021/06/25 03:52:37;;;;;;;33.25;5.80;;;691.20;1740.80;;;;;;5074709;28;20021;-58
2021/06/25 03:55:04;;;;;;;31.40;5.85;;;691.20;1740.80;;;;;;5074561;28;20031;-57
2021/06/25 03:57:29;;;;;;;27.75;6.30;;;691.20;1715.20;;;;;;5074183;28;20028;-59
2021/06/25 03:59:55;;;;;;;33.90;5.93;;;691.20;1715.20;;;;;;5074410;28;20043;-58
2021/06/25 04:02:21;;;;;;;31.33;5.90;;;691.30;1715.20;;;;;;5061877;28;20488;-58
2021/06/25 04:04:46;;;;;;;27.80;5.57;;;691.30;1715.20;;;;;;5054281;28;20106;-58
2021/06/25 04:07:12;;;;;;;31.08;6.00;;;691.30;1715.20;;;;;;5062633;28;20056;-59
2021/06/25 04:09:38;;;;;;;30.45;6.25;;;691.40;1715.20;;;;;;5074463;28;20021;-58
2021/06/25 04:12:04;;;;;;;32.35;7.10;;;691.50;1715.20;;;;;;5056086;28;20056;-58
2021/06/25 04:14:30;;;;;;;33.47;6.57;;;691.50;1715.20;;;;;;5074130;28;20040;-58
2021/06/25 04:16:56;;;;;;;29.55;7.40;;;691.50;1689.60;;;;;;5073995;28;20030;-58
2021/06/25 04:19:22;;;;;;;40.53;13.52;;;691.60;1689.60;;;;;;5074109;28;20040;-58
2021/06/25 04:21:48;;;;;;;47.83;11.90;;;691.50;1689.60;;;;;;5074115;28;20079;-58
2021/06/25 04:24:13;;;;;;;35.08;10.18;;;691.60;1689.60;;;;;;5074164;28;20021;-58
2021/06/25 04:26:39;;;;;;;34.22;8.82;;;691.70;1689.60;;;;;;5073876;28;20489;-58
2021/06/25 04:29:09;;;;;;;39.10;10.90;;;691.80;1664.00;;;;;;5074027;28;20024;-58
2021/06/25 04:31:35;;;;;;;35.53;10.40;;;691.70;1689.60;;;;;;5073993;28;20378;-58
2021/06/25 04:34:01;;;;;;;32.78;7.30;;;691.80;1664.00;;;;;;5055954;28;20048;-58
2021/06/25 04:36:27;;;;;;;27.63;6.18;;;691.80;1664.00;;;;;;5074064;28;20025;-58
2021/06/25 04:38:53;;;;;;;35.28;6.50;;;691.90;1664.00;;;;;;5073865;28;20078;-57
2021/06/25 04:41:18;;;;;;;33.85;6.32;;;691.90;1664.00;;;;;;5073894;28;20075;-58
2021/06/25 04:43:45;;;;;;;38.72;7.35;;;692.00;1664.00;;;;;;5073851;28;20363;-57
2021/06/25 04:46:12;;;;;;;33.67;6.88;;;692.00;1638.40;;;;;;5073465;28;20074;-57
2021/06/25 04:48:37;;;;;;;27.85;6.13;;;692.10;1638.40;;;;;;5074128;28;20040;-57
2021/06/25 04:51:03;;;;;;;35.70;6.72;;;692.10;1664.00;;;;;;5073811;28;20020;-57
2021/06/25 04:53:29;;;;;;;35.58;6.53;;;692.10;1638.40;;;;;;5073628;28;20028;-57
2021/06/25 04:55:55;;;;;;;31.75;6.47;;;716.80;1689.60;;;;;;5073898;28;20028;-58
2021/06/25 04:58:26;;;;;;;26.75;6.13;;;716.80;1664.00;;;;;;5073700;28;20035;-58
2021/06/25 05:00:52;;;;;;;33.35;6.15;;;716.80;1664.00;;;;;;5073809;28;20373;-57
2021/06/25 05:03:18;;;;;;;29.02;5.38;;;717.00;1664.00;;;;;;5073730;28;20100;-59
2021/06/25 05:05:44;;;;;;;34.60;6.55;;;717.00;1664.00;;;;;;5073757;28;20027;-59
2021/06/25 05:08:10;;;;;;;30.75;6.15;;;717.10;1664.00;;;;;;5073757;28;20044;-58
2021/06/25 05:10:36;;;;;;;34.90;5.85;;;717.10;1664.00;;;;;;5073797;28;20071;-58
2021/06/25 05:13:03;;;;;;;30.08;5.80;;;717.30;1664.00;;;;;;5073248;28;20462;-58
2021/06/25 05:15:29;;;;;;;30.15;6.47;;;717.30;1664.00;;;;;;5073058;28;20024;-58
2021/06/25 05:17:55;;;;;;;30.98;6.22;;;717.40;1664.00;;;;;;5055504;28;20078;-59
2021/06/25 05:20:21;;;;;;;26.40;5.85;;;717.50;1664.00;;;;;;5073200;28;20373;-58
2021/06/25 05:22:47;;;;;;;31.40;5.72;;;717.50;1638.40;;;;;;5073076;28;20057;-58
2021/06/25 05:25:14;;;;;;;29.92;6.50;;;717.50;1638.40;;;;;;5073512;28;20024;-58
2021/06/25 05:27:40;;;;;;;27.40;6.10;;;717.60;1638.40;;;;;;5055312;28;20102;-58
2021/06/25 05:30:07;;;;;;;26.88;6.25;;;717.60;1612.80;;;;;;5073286;28;20462;-58
2021/06/25 05:32:34;;;;;;;26.92;5.88;;;717.60;1638.40;;;;;;5055656;28;20075;-58
2021/06/25 05:35:00;;;;;;;34.15;5.97;;;717.70;1612.80;;;;;;5073324;28;20073;-58
2021/06/25 05:37:26;;;;;;;27.45;5.95;;;717.70;1638.40;;;;;;5073264;28;20543;-58
2021/06/25 05:39:52;;;;;;;37.67;6.78;;;717.70;1638.40;;;;;;5073225;28;20032;-58
2021/06/25 05:42:18;;;;;;;30.50;6.13;;;717.70;1638.40;;;;;;5055356;28;20041;-58
2021/06/25 05:44:43;;;;;;;31.52;5.30;;;717.70;1612.80;;;;;;5073079;28;20028;-58
2021/06/25 05:47:10;;;;;;;29.85;5.72;;;717.70;1612.80;;;;;;5072870;28;20029;-58
2021/06/25 05:49:35;;;;;;;29.88;5.97;;;742.40;1664.00;;;;;;5073155;28;20355;-59
2021/06/25 05:52:01;;;;;;;38.78;6.53;;;742.40;1689.60;;;;;;5073311;28;20025;-59
2021/06/25 05:54:27;;;;;;;24.85;5.78;;;742.40;1689.60;;;;;;5073330;28;20378;-59
2021/06/25 05:56:53;;;;;;;25.55;5.40;;;742.50;1664.00;;;;;;5073151;28;20104;-59
2021/06/25 05:59:19;;;;;;;30.15;6.43;;;742.60;1638.40;;;;;;5072913;28;20036;-59
2021/06/25 06:01:45;;;;;;;29.50;5.30;;;742.70;1638.40;;;;;;5073098;28;20109;-58
2021/06/25 06:04:10;;;;;;;25.00;5.32;;;742.80;1638.40;;;;;;5055330;28;20029;-59
2021/06/25 06:06:36;;;;;;;25.65;5.60;;;742.80;1638.40;;;;;;5073026;28;20031;-58
2021/06/25 06:09:03;;;;;;;30.33;5.45;;;742.90;1612.80;;;;;;5073149;28;20082;-58
2021/06/25 06:11:29;;;;;;;26.13;5.82;;;742.90;1612.80;;;;;;5073010;28;20104;-58
2021/06/25 06:13:55;;;;;;;28.92;5.38;;;742.90;1612.80;;;;;;5073046;28;20028;-59
2021/06/25 06:16:20;;;;;;;28.38;5.25;;;743.00;1612.80;;;;;;5072402;28;20024;-58
2021/06/25 06:18:47;;;;;;;27.50;5.90;;;743.00;1612.80;;;;;;5073084;28;20068;-60
2021/06/25 06:21:19;;;;;;;28.55;5.72;;;743.10;1587.20;;;;;;5072771;28;20048;-59
2021/06/25 06:32:22;;;;;;;25.95;5.78;;;768.00;1561.60;;;;;;5076304;28;20564;-59
2021/06/25 06:34:45;;;;;;;24.70;5.53;;;768.20;1561.60;;;;;;5075898;28;20033;-59
2021/06/25 06:37:18;;;;;;;27.13;4.80;;;768.30;1561.60;;;;;;5076371;28;20386;-59
2021/06/25 06:39:44;;;;;;;22.55;5.47;;;768.40;1561.60;;;;;;5058465;28;20128;-59
2021/06/25 06:42:10;;;;;;;21.52;5.20;;;768.50;1536.00;;;;;;5075927;28;20561;-59
2021/06/25 06:44:36;;;;;;;24.17;5.82;;;768.50;1536.00;;;;;;5075766;28;20031;-59
2021/06/25 06:47:02;;;;;;;28.50;5.18;;;768.60;1510.40;;;;;;5075619;28;20024;-59
2021/06/25 06:49:27;;;;;;;23.85;5.00;;;768.60;1484.80;;;;;;5076169;28;20032;-59
2021/06/25 06:51:53;;;;;;;23.80;5.10;;;768.70;1510.40;;;;;;5075423;28;20031;-59
2021/06/25 06:54:19;;;;;;;23.10;5.07;;;768.80;1484.80;;;;;;5058275;28;20115;-59
2021/06/25 06:56:44;;;;;;;24.33;5.82;;;768.90;1484.80;;;;;;5076042;28;20063;-59
2021/06/25 06:59:10;;;;;;;27.10;5.80;;;793.60;1484.80;;;;;;5075641;28;20174;-59
2021/06/25 07:01:36;;;;;;;20.98;4.82;;;793.60;1484.80;;;;;;5075682;28;20021;-60
2021/06/25 07:04:02;;;;;;;22.83;4.82;;;793.90;1484.80;;;;;;5075763;28;20020;-59
2021/06/25 07:06:29;;;;;;;24.10;4.88;;;794.10;1433.60;;;;;;5075627;28;20017;-59
2021/06/25 07:08:54;;;;;;;20.15;5.05;;;794.20;1459.20;;;;;;5075484;28;20036;-59
2021/06/25 07:11:20;;;;;;;18.77;4.80;;;794.40;1433.60;;;;;;5075191;28;20020;-59
2021/06/25 07:13:46;;;;;;;21.33;5.30;;;794.40;1433.60;;;;;;5075698;28;20417;-59
2021/06/25 07:16:13;;;;;;;24.10;4.82;;;794.50;1433.60;;;;;;5075651;28;20031;-59
2021/06/25 07:18:40;;;;;;;16.92;5.03;;;819.20;1433.60;;;;;;5075233;28;20502;-59
2021/06/25 07:21:05;;;;;;;25.42;5.15;;;819.20;1433.60;;;;;;5075473;28;20024;-59
2021/06/25 07:23:31;;;;;;;22.00;5.13;;;819.50;1433.60;;;;;;5075359;28;20381;-59
2021/06/25 07:25:57;;;;;;;26.02;5.40;;;819.60;1408.00;;;;;;5075225;28;20173;-59
2021/06/25 07:28:22;;;;;;;17.30;4.82;;;819.40;1408.00;;;;;;5075194;28;20028;-59
2021/06/25 07:30:48;;;;;;;21.52;4.97;;;819.50;1408.00;;;;;;5075153;28;20050;-59
2021/06/25 07:33:14;;;;;;;19.85;5.30;;;819.70;1382.40;;;;;;5075057;28;20025;-59
2021/06/25 07:35:40;;;;;;;20.55;5.40;;;819.70;1382.40;;;;;;5074969;28;20024;-59
2021/06/25 07:38:05;;;;;;;24.25;5.68;;;819.90;1408.00;;;;;;5074683;28;20029;-59
2021/06/25 07:40:31;;;;;;;17.35;4.88;;;819.80;1408.00;;;;;;5075170;28;20047;-59
2021/06/25 07:42:57;;;;;;;24.02;4.57;;;820.00;1382.40;;;;;;5075047;28;20494;-59
2021/06/25 07:45:23;;;;;;;22.83;5.20;;;820.10;1382.40;;;;;;5074919;28;20105;-58
2021/06/25 07:47:48;;;;;;;21.52;5.03;;;844.80;1382.40;;;;;;5074894;28;20032;-58
2021/06/25 07:50:17;;;;;;;18.42;4.60;;;845.10;1356.80;;;;;;5074950;28;20020;-57
2021/06/25 07:52:43;;;;;;;21.17;4.90;;;845.40;1356.80;;;;;;5075082;28;20025;-57
2021/06/25 07:55:12;;;;;;;25.92;5.18;;;845.50;1331.20;;;;;;5074609;28;20058;-57
2021/06/25 07:57:39;;;;;;;19.10;4.67;;;845.60;1331.20;;;;;;5074737;28;20420;-57
2021/06/25 08:00:05;;;;;;;16.88;5.05;;;845.60;1305.60;;;;;;5056476;28;20393;-56
2021/06/25 08:02:31;;;;;;;20.38;5.13;;;845.30;1331.20;;;;;;5074659;28;20020;-56
2021/06/25 08:04:57;;;;;;;17.08;4.70;;;845.60;1305.60;;;;;;5074080;28;20544;-56
2021/06/25 08:07:23;;;;;;;22.23;5.13;;;870.40;1305.60;;;;;;5073999;28;20048;-56
2021/06/25 08:09:48;;;;;;;17.17;4.70;;;870.60;1280.00;;;;;;5074456;28;20385;-57
2021/06/25 08:12:14;;;;;;;19.55;4.57;;;845.60;1280.00;;;;;;5074341;28;20429;-56
2021/06/25 08:14:41;;;;;;;22.38;5.00;;;845.70;1280.00;;;;;;5074123;28;20071;-57
2021/06/25 08:17:07;;;;;;;18.10;4.60;;;870.40;1280.00;;;;;;5074386;28;20024;-57
2021/06/25 08:19:33;;;;;;;19.30;5.03;;;870.50;1254.40;;;;;;5074071;28;20040;-56
2021/06/25 08:21:59;;;;;;;23.48;5.75;;;870.60;1254.40;;;;;;5074401;28;20043;-57
2021/06/25 08:24:25;;;;;;;16.77;4.78;;;845.70;1280.00;;;;;;5074341;28;20457;-56
2021/06/25 08:26:52;;;;;;;15.65;4.85;;;870.40;1280.00;;;;;;5074205;28;20099;-56
2021/06/25 08:29:18;;;;;;;18.65;5.00;;;870.60;1254.40;;;;;;5073988;28;20077;-57
2021/06/25 08:31:43;;;;;;;21.42;5.13;;;870.70;1280.00;;;;;;5073571;28;20024;-57
2021/06/25 08:34:12;;;;;;;20.23;5.18;;;870.80;1254.40;;;;;;5074373;28;20593;-57
2021/06/25 08:36:38;;;;;;;17.38;4.93;;;870.90;1228.80;;;;;;5073964;28;20098;-56
2021/06/25 08:39:05;;;;;;;14.18;4.30;;;871.00;1228.80;;;;;;5073833;28;20082;-56
2021/06/25 08:41:33;;;;;;;16.13;4.45;;;896.00;1228.80;;;;;;5073322;28;20119;-56
2021/06/25 08:43:58;;;;;;;19.77;5.05;;;896.00;1203.20;;;;;;5073685;28;20483;-56
2021/06/25 08:46:24;;;;;;;21.08;4.88;;;896.10;1203.20;;;;;;5073665;28;20109;-56
2021/06/25 08:48:53;;;;;;;23.77;4.82;;;896.20;1177.60;;;;;;5072944;28;20028;-57
2021/06/25 08:51:19;;;;;;;20.35;4.40;;;896.30;1177.60;;;;;;5073982;28;20017;-56
2021/06/25 08:53:45;;;;;;;15.00;4.50;;;896.30;1177.60;;;;;;5073799;28;20029;-56
2021/06/25 08:56:11;;;;;;;17.88;5.18;;;896.50;1152.00;;;;;;5073861;28;20098;-56
2021/06/25 08:58:36;;;;;;;18.98;4.57;;;896.50;1152.00;;;;;;5073523;28;20099;-56
2021/06/25 09:01:02;;;;;;;17.73;5.07;;;921.70;1152.00;;;;;;5073372;28;20028;-57
2021/06/25 09:03:30;;;;;;;18.92;4.68;;;896.80;1126.40;;;;;;5073744;28;20099;-58
2021/06/25 09:06:14;;;;;;;16.52;4.60;;;896.70;1100.80;;;;;;5073625;28;20025;-56
2021/06/25 09:08:42;;;;;;;17.42;5.13;;;896.20;1152.00;;;;;;5073597;28;20044;-56
2021/06/25 09:11:19;;;;;;;16.42;4.60;;;896.10;1152.00;;;;;;5073615;28;20036;-57
2021/06/25 09:13:45;;;;;;;19.42;4.90;;;896.40;1152.00;;;;;;5074130;28;20028;-57
2021/06/25 09:16:24;;;;;;;20.75;4.85;;;896.50;1126.40;;;;;;5073446;28;20024;-57
2021/06/25 09:18:59;;;;;;;18.50;4.78;;;896.60;1100.80;;;;;;5073263;28;20036;-57
2021/06/25 09:21:26;;;;;;;23.02;5.20;;;896.70;1075.20;;;;;;5073514;28;20095;-57
2021/06/25 09:23:53;;;;;;;13.30;4.50;;;896.30;1126.40;;;;;;5073479;28;20028;-57
2021/06/25 09:26:21;;;;;;;21.60;5.28;;;896.80;1100.80;;;;;;5073391;28;20017;-56
2021/06/25 09:28:48;;;;;;;16.00;4.72;;;896.80;1100.80;;;;;;5073342;28;20128;-57
2021/06/25 09:31:23;;;;;;;18.50;4.70;;;896.80;1126.40;;;;;;5073226;28;20086;-57
2021/06/25 09:33:51;;;;;;;18.20;5.22;;;896.80;1075.20;;;;;;5073386;28;20474;-57
2021/06/25 09:36:27;;;;;;;17.02;4.63;;;896.90;1100.80;;;;;;5073420;28;20100;-56
2021/06/25 09:39:13;;;;;;;20.88;5.00;;;921.70;1075.20;;;;;;5073001;28;20036;-56
2021/06/25 09:41:44;;;;;;;16.58;4.88;;;896.90;1075.20;;;;;;5073133;28;20123;-58
2021/06/25 09:44:15;;;;;;;18.00;4.82;;;922.00;1075.20;;;;;;5055016;28;20592;-56
2021/06/25 09:46:42;;;;;;;18.95;4.70;;;922.20;1075.20;;;;;;5073040;28;20056;-57
2021/06/25 09:49:13;;;;;;;15.15;4.45;;;922.40;1075.20;;;;;;5055304;28;20561;-57
2021/06/25 09:51:51;;;;;;;16.20;4.88;;;922.50;1049.60;;;;;;5073324;28;20074;-57
2021/06/25 09:54:17;;;;;;;15.02;5.05;;;947.50;1049.60;;;;;;5073069;28;20032;-57
2021/06/25 09:56:48;;;;;;;19.35;4.55;;;947.60;998.40;;;;;;5073168;28;20027;-57
2021/06/25 10:01:51;;;;;;;20.98;5.00;;;947.90;1024.00;;;;;;5076626;28;20029;-57
2021/06/25 10:04:33;;;;;;;22.85;5.00;;;947.70;998.40;;;;;;5076695;28;20051;-56
2021/06/25 10:07:19;;;;;;;17.13;5.00;;;947.70;1024.00;;;;;;5076737;28;20029;-57
2021/06/25 10:09:47;;;;;;;21.00;5.40;;;947.40;1024.00;;;;;;5076551;28;20036;-57
2021/06/25 10:12:15;;;;;;;17.85;4.80;;;947.60;1024.00;;;;;;5076895;28;20044;-57
2021/06/25 10:14:42;;;;;;;23.30;5.10;;;922.40;1024.00;;;;;;5076735;28;20374;-58
2021/06/25 10:17:09;;;;;;;14.27;4.47;;;947.50;1024.00;;;;;;5076788;28;20492;-57
2021/06/25 10:19:44;;;;;;;18.30;5.00;;;947.40;1024.00;;;;;;5076721;28;20040;-56
2021/06/25 10:22:12;;;;;;;15.85;4.40;;;947.80;1024.00;;;;;;5076389;28;20027;-56
2021/06/25 10:24:40;;;;;;;16.75;4.63;;;972.80;1024.00;;;;;;5076585;28;20020;-56
2021/06/25 10:27:08;;;;;;;17.52;5.18;;;973.00;998.40;;;;;;5076438;28;20063;-57
2021/06/25 10:29:35;;;;;;;19.63;4.68;;;973.00;998.40;;;;;;5076821;28;20017;-57
2021/06/25 10:32:07;;;;;;;21.08;4.97;;;973.00;998.40;;;;;;5076487;28;20482;-56
2021/06/25 10:34:33;;;;;;;15.82;4.68;;;973.00;998.40;;;;;;5076276;28;20563;-57
2021/06/25 10:37:02;;;;;;;18.77;4.80;;;947.80;998.40;;;;;;5076189;28;20492;-57
2021/06/25 10:39:31;;;;;;;21.95;4.88;;;947.80;972.80;;;;;;5075829;28;20044;-56
2021/06/25 10:41:58;;;;;;;24.10;4.60;;;947.60;972.80;;;;;;5075933;28;20840;-57
2021/06/25 10:44:34;;;;;;;16.05;4.60;;;947.60;998.40;;;;;;5076152;28;20025;-58
2021/06/25 10:47:24;;;;;;;18.13;4.80;;;947.90;998.40;;;;;;5075817;28;20040;-58
2021/06/25 10:49:59;;;;;;;19.70;4.63;;;948.00;972.80;;;;;;5075697;28;20029;-58
2021/06/25 10:53:04;;;;;;;17.67;4.90;;;947.70;998.40;;;;;;5075973;28;20651;-58
2021/06/25 10:55:30;;;;;;;21.30;4.75;;;947.90;998.40;;;;;;4975309;28;20045;-57
2021/06/25 10:57:55;;;;;;;23.77;5.18;;;947.90;972.80;;;;;;4974941;28;20043;-57
2021/06/25 11:00:26;;;;;;;15.85;4.47;;;947.90;972.80;;;;;;4974950;28;20054;-58
2021/06/25 11:02:53;;;;;;;16.88;4.55;;;972.80;998.40;;;;;;4974957;28;20062;-57
2021/06/25 11:05:22;;;;;;;20.15;4.57;;;947.80;947.20;;;;;;4974734;28;20551;-57
2021/06/25 11:07:49;;;;;;;18.00;4.72;;;947.90;972.80;;;;;;4974806;28;20027;-57
2021/06/25 11:10:35;;;;;;;19.25;4.60;;;947.50;998.40;;;;;;4958601;28;20493;-57
2021/06/25 11:13:13;;;;;;;14.95;4.40;;;947.70;972.80;;;;;;4973698;28;20062;-57
2021/06/25 11:15:40;;;;;;;18.85;4.57;;;947.60;972.80;;;;;;4974701;28;20031;-57
2021/06/25 11:18:22;;;;;;;13.93;4.30;;;947.80;972.80;;;;;;4974544;28;20038;-57
2021/06/25 11:21:04;;;;;;;24.52;5.22;;;948.00;947.20;;;;;;4974608;28;20037;-57
2021/06/25 11:23:38;;;;;;;20.05;4.97;;;947.70;972.80;;;;;;4974497;28;20031;-57
2021/06/25 11:26:25;;;;;;;18.75;4.78;;;948.00;972.80;;;;;;4974583;28;20051;-57
2021/06/25 11:28:52;;;;;;;17.42;4.50;;;947.50;998.40;;;;;;4974415;28;20027;-58
2021/06/25 11:31:21;;;;;;;20.80;5.00;;;947.80;998.40;;;;;;4984715;28;20457;-57
2021/06/25 11:33:50;;;;;;;17.50;4.55;;;947.30;998.40;;;;;;5075039;28;20049;-58
2021/06/25 11:36:30;;;;;;;19.40;4.53;;;947.60;998.40;;;;;;5075079;28;20028;-57
2021/06/25 11:39:06;;;;;;;16.02;4.35;;;947.70;998.40;;;;;;5056958;28;20036;-57
2021/06/25 11:41:59;;;;;;;23.13;4.57;;;947.40;972.80;;;;;;5074688;28;20402;-57
2021/06/25 11:44:26;;;;;;;12.38;4.50;;;947.50;972.80;;;;;;5074910;28;20050;-58
2021/06/25 11:46:58;;;;;;;16.83;4.25;;;922.50;998.40;;;;;;5074881;28;20130;-58
2021/06/25 11:49:41;;;;;;;15.98;4.43;;;947.30;972.80;;;;;;5075096;28;20107;-58
2021/06/25 11:52:18;;;;;;;22.48;4.85;;;947.40;972.80;;;;;;5075067;28;20028;-57
2021/06/25 11:54:48;;;;;;;16.58;4.40;;;922.50;972.80;;;;;;5074684;28;20020;-57
2021/06/25 11:57:25;;;;;;;20.15;4.60;;;947.50;972.80;;;;;;5056657;28;20050;-57
2021/06/25 12:00:10;;;;;;;21.15;4.97;;;947.70;972.80;;;;;;5074587;28;20037;-57
2021/06/25 12:02:55;;;;;;;17.77;4.60;;;948.00;972.80;;;;;;5056618;28;20025;-57
2021/06/25 12:05:33;;;;;;;25.45;4.97;;;947.60;972.80;;;;;;5056692;28;20036;-58
2021/06/25 12:08:13;;;;;;;24.25;4.57;;;948.10;972.80;;;;;;5074631;28;20031;-57
2021/06/25 12:11:01;;;;;;;17.20;4.75;;;947.90;998.40;;;;;;5074549;28;20097;-57
2021/06/25 12:13:29;;;;;;;20.83;5.18;;;947.40;972.80;;;;;;5073688;28;20033;-58
2021/06/25 12:15:55;;;;;;;19.00;4.63;;;947.40;972.80;;;;;;5056529;28;20039;-57
2021/06/25 12:18:26;;;;;;;21.52;5.05;;;947.70;947.20;;;;;;5073640;28;20491;-59
2021/06/25 12:21:14;;;;;;;25.05;4.57;;;947.90;947.20;;;;;;5073980;28;20048;-58
2021/06/25 12:23:40;;;;;;;18.42;4.80;;;947.80;947.20;;;;;;5056449;28;20115;-57